Terminal Aerodrome Forecast
Issued by NWS

Home | Current Version | Previous Version | Graphics & Text | Print | Product List | Glossary On
Versions: 1 2 3 4 5 6 7 8 9 10 11 12 13 14 15 16 17 18 19 20 21 22 23 24 25 26 27 28 29 30 31
419
FTUS43 KLOT 151135
TAFORD
TAF
KORD 151135Z 1512/1618 VRB03KT P6SM BKN250
     FM152000 18004KT P6SM BKN200
     FM160900 14005KT P6SM SCT020 BKN060 PROB30 1612/1616 5SM
      -FZRAPL BKN020
     FM161600 09008KT 4SM -RA SCT004 OVC008=

USA.gov is the U.S. government's official web portal to all federal, state and local government web resources and services.